Ana Sayfa
METAR-TAF:

METAR-TAF

Havaalanları :

DuBois / Falls Creek, Pensilvanya, Amerika Birleşik Devletleri

Enlem: 41-11N, Boylam: 078-54W, yükseklik: 555 m

Güncel hava durumu gözlemi

Rapor saat 22:53 UTC de 1 saat ve 1 dakika önce yapıldı.
Rüzgar batıdan 8 kt
Sıcaklık 29°C
Nem 40%
Basınç 1019 hPa
Görüş mesafesi: 16.1 km
Açık gökyüzü

METAR: KDUJ 092253Z AUTO 27008KT 10SM CLR 29/14 A3010 RMK AO2 SLP182 T02890144

Saat: 19:54 (23:54 UTC)

Tahmin

Rapor saat 23:20 UTC de 34 dakika önce yapıldı.
Ayın 10'si saat 00 UTC'den ayın 10'si saat 24 UTC'ye kadar geçerli Tahmin
Rüzgar güneybatıdan 5 kt
Görüş mesafesi: 10 km
Açık gökyüzü

TAF: KDUJ 092320Z 1000/1024 23005KT P6SM SKC

4.000'den fazla havaalanı için hava durumu gözlemleri ve tahminleri (METAR ve TAF raporları).

Kullanılabilir istasyonlar harita üzerinde sarı ve kırmızı noktalarla gösterilir.

İstasyonun adını görmek için fareyi noktanın üzerinde gezdirin.

Sonrasında hava gözlem ve tahminlerini görmek için tıklayın.

Haritayı değiştirmek için: yaklaştırmak için siyah artı işaretli yeşil düğmeye ve uzaklaştırmak için de eksi işaretli düğmeye hızla tıklayın; bitişik haritalar için yeşil okları kullanın.


METAR-TAF: